sensor_id;sensor_type;location;lat;lon;timestamp;temperature;humidity
49052;DHT22;34866;48.670;18.260;2022-10-31T00:01:25;256.50;2252.80
49052;DHT22;34866;48.670;18.260;2022-10-31T00:03:52;256.50;2252.80
49052;DHT22;34866;48.670;18.260;2022-10-31T00:06:17;256.50;2252.80
49052;DHT22;34866;48.670;18.260;2022-10-31T00:08:45;256.50;2252.80
49052;DHT22;34866;48.670;18.260;2022-10-31T00:11:11;256.50;2252.80
49052;DHT22;34866;48.670;18.260;2022-10-31T00:13:37;256.50;2252.80
49052;DHT22;34866;48.670;18.260;2022-10-31T00:16:04;256.40;2252.80
49052;DHT22;34866;48.670;18.260;2022-10-31T00:18:30;256.50;2252.80
49052;DHT22;34866;48.670;18.260;2022-10-31T00:21:08;256.50;2252.80
49052;DHT22;34866;48.670;18.260;2022-10-31T00:23:34;256.50;2252.80
49052;DHT22;34866;48.670;18.260;2022-10-31T00:26:01;256.50;2252.80
49052;DHT22;34866;48.670;18.260;2022-10-31T00:28:34;256.40;2252.80
49052;DHT22;34866;48.670;18.260;2022-10-31T00:31:00;256.40;2252.80
49052;DHT22;34866;48.670;18.260;2022-10-31T00:33:28;256.40;2252.80
49052;DHT22;34866;48.670;18.260;2022-10-31T00:35:56;256.30;2252.80
49052;DHT22;34866;48.670;18.260;2022-10-31T00:38:22;256.30;2252.80
49052;DHT22;34866;48.670;18.260;2022-10-31T00:40:48;256.30;2252.80
49052;DHT22;34866;48.670;18.260;2022-10-31T00:43:26;256.30;2252.80
49052;DHT22;34866;48.670;18.260;2022-10-31T00:45:52;256.30;2252.80
49052;DHT22;34866;48.670;18.260;2022-10-31T00:48:18;256.30;2252.80
49052;DHT22;34866;48.670;18.260;2022-10-31T00:50:44;256.20;2252.80
49052;DHT22;34866;48.670;18.260;2022-10-31T00:53:11;256.30;2252.80
49052;DHT22;34866;48.670;18.260;2022-10-31T00:55:36;256.20;2252.80
49052;DHT22;34866;48.670;18.260;2022-10-31T00:58:02;256.30;2252.80
49052;DHT22;34866;48.670;18.260;2022-10-31T01:00:28;256.20;2252.80
49052;DHT22;34866;48.670;18.260;2022-10-31T01:02:53;256.20;2252.80
49052;DHT22;34866;48.670;18.260;2022-10-31T01:05:23;256.20;2252.80
49052;DHT22;34866;48.670;18.260;2022-10-31T01:07:48;256.20;2252.80
49052;DHT22;34866;48.670;18.260;2022-10-31T01:10:17;256.20;2252.80
49052;DHT22;34866;48.670;18.260;2022-10-31T01:12:47;256.20;2252.80
49052;DHT22;34866;48.670;18.260;2022-10-31T01:15:17;256.20;2252.80
49052;DHT22;34866;48.670;18.260;2022-10-31T01:17:49;256.10;2252.80
49052;DHT22;34866;48.670;18.260;2022-10-31T01:20:15;256.00;2252.80
49052;DHT22;34866;48.670;18.260;2022-10-31T01:22:41;256.00;2252.80
49052;DHT22;34866;48.670;18.260;2022-10-31T01:25:08;256.00;2252.80
49052;DHT22;34866;48.670;18.260;2022-10-31T01:27:40;256.00;2252.80
49052;DHT22;34866;48.670;18.260;2022-10-31T01:30:13;231.30;2252.80
49052;DHT22;34866;48.670;18.260;2022-10-31T01:32:38;231.30;2252.80
49052;DHT22;34866;48.670;18.260;2022-10-31T01:35:04;231.30;2252.80
49052;DHT22;34866;48.670;18.260;2022-10-31T01:37:31;231.30;2252.80
49052;DHT22;34866;48.670;18.260;2022-10-31T01:39:56;231.30;2252.80
49052;DHT22;34866;48.670;18.260;2022-10-31T01:42:23;231.30;2252.80
49052;DHT22;34866;48.670;18.260;2022-10-31T01:44:56;231.20;2252.80
49052;DHT22;34866;48.670;18.260;2022-10-31T01:47:50;231.30;2252.80
49052;DHT22;34866;48.670;18.260;2022-10-31T01:50:37;231.30;2252.80
49052;DHT22;34866;48.670;18.260;2022-10-31T01:53:06;231.20;2252.80
49052;DHT22;34866;48.670;18.260;2022-10-31T01:55:39;231.30;2252.80
49052;DHT22;34866;48.670;18.260;2022-10-31T01:58:26;231.30;2252.80
49052;DHT22;34866;48.670;18.260;2022-10-31T02:00:57;231.30;2252.80
49052;DHT22;34866;48.670;18.260;2022-10-31T02:03:24;231.30;2252.80
49052;DHT22;34866;48.670;18.260;2022-10-31T02:05:51;231.30;2252.80
49052;DHT22;34866;48.670;18.260;2022-10-31T02:08:37;256.00;2252.80
49052;DHT22;34866;48.670;18.260;2022-10-31T02:11:09;231.30;2252.80
49052;DHT22;34866;48.670;18.260;2022-10-31T02:13:36;231.20;2252.80
49052;DHT22;34866;48.670;18.260;2022-10-31T02:16:02;231.30;2252.80
49052;DHT22;34866;48.670;18.260;2022-10-31T02:18:33;231.30;2252.80
49052;DHT22;34866;48.670;18.260;2022-10-31T02:21:22;231.30;2252.80
49052;DHT22;34866;48.670;18.260;2022-10-31T02:27:40;256.10;2252.80
49052;DHT22;34866;48.670;18.260;2022-10-31T02:30:21;231.20;2252.80
49052;DHT22;34866;48.670;18.260;2022-10-31T02:52:34;256.00;2252.80
49052;DHT22;34866;48.670;18.260;2022-10-31T02:58:19;256.00;2252.80
49052;DHT22;34866;48.670;18.260;2022-10-31T03:01:10;256.00;2252.80
49052;DHT22;34866;48.670;18.260;2022-10-31T03:06:33;256.00;2252.80
49052;DHT22;34866;48.670;18.260;2022-10-31T03:14:31;231.30;2252.80
49052;DHT22;34866;48.670;18.260;2022-10-31T03:17:04;231.30;2252.80
49052;DHT22;34866;48.670;18.260;2022-10-31T03:19:42;231.30;2252.80
49052;DHT22;34866;48.670;18.260;2022-10-31T03:22:21;231.30;2252.80
49052;DHT22;34866;48.670;18.260;2022-10-31T03:25:22;231.20;2252.80
49052;DHT22;34866;48.670;18.260;2022-10-31T03:27:52;231.20;2252.80
49052;DHT22;34866;48.670;18.260;2022-10-31T03:30:21;231.20;2252.80
49052;DHT22;34866;48.670;18.260;2022-10-31T03:32:53;231.10;2252.80
49052;DHT22;34866;48.670;18.260;2022-10-31T03:35:24;231.10;2252.80
49052;DHT22;34866;48.670;18.260;2022-10-31T03:37:54;231.10;2252.80
49052;DHT22;34866;48.670;18.260;2022-10-31T03:40:24;231.10;2252.80
49052;DHT22;34866;48.670;18.260;2022-10-31T03:43:03;231.20;2252.80
49052;DHT22;34866;48.670;18.260;2022-10-31T03:45:33;231.10;2252.80
49052;DHT22;34866;48.670;18.260;2022-10-31T03:48:01;231.20;2252.80
49052;DHT22;34866;48.670;18.260;2022-10-31T03:50:33;231.20;2252.80
49052;DHT22;34866;48.670;18.260;2022-10-31T03:53:26;231.20;2252.80
49052;DHT22;34866;48.670;18.260;2022-10-31T03:56:33;231.20;2252.80
49052;DHT22;34866;48.670;18.260;2022-10-31T03:59:11;231.30;2252.80
49052;DHT22;34866;48.670;18.260;2022-10-31T04:01:42;231.20;2252.80
49052;DHT22;34866;48.670;18.260;2022-10-31T04:04:13;231.20;2252.80
49052;DHT22;34866;48.670;18.260;2022-10-31T04:06:42;231.10;2252.80
49052;DHT22;34866;48.670;18.260;2022-10-31T04:09:12;231.10;2252.80
49052;DHT22;34866;48.670;18.260;2022-10-31T04:11:49;231.00;2252.80
49052;DHT22;34866;48.670;18.260;2022-10-31T04:14:16;231.10;2252.80
49052;DHT22;34866;48.670;18.260;2022-10-31T04:16:45;231.10;2252.80
49052;DHT22;34866;48.670;18.260;2022-10-31T04:19:20;231.10;2252.80
49052;DHT22;34866;48.670;18.260;2022-10-31T04:21:48;231.10;2252.80
49052;DHT22;34866;48.670;18.260;2022-10-31T04:24:14;231.10;2252.80
49052;DHT22;34866;48.670;18.260;2022-10-31T04:26:41;231.10;2252.80
49052;DHT22;34866;48.670;18.260;2022-10-31T04:29:35;231.00;2252.80
49052;DHT22;34866;48.670;18.260;2022-10-31T04:32:00;231.00;2252.80
49052;DHT22;34866;48.670;18.260;2022-10-31T04:34:26;230.90;2252.80
49052;DHT22;34866;48.670;18.260;2022-10-31T04:36:55;230.90;2252.80
49052;DHT22;34866;48.670;18.260;2022-10-31T04:39:20;230.80;2252.80
49052;DHT22;34866;48.670;18.260;2022-10-31T04:41:46;230.80;2252.80
49052;DHT22;34866;48.670;18.260;2022-10-31T04:44:15;230.80;2252.80
49052;DHT22;34866;48.670;18.260;2022-10-31T04:46:47;230.70;2252.80
49052;DHT22;34866;48.670;18.260;2022-10-31T04:49:13;230.80;2252.80
49052;DHT22;34866;48.670;18.260;2022-10-31T04:51:41;230.80;2252.80
49052;DHT22;34866;48.670;18.260;2022-10-31T04:54:33;230.80;2252.80
49052;DHT22;34866;48.670;18.260;2022-10-31T04:56:59;230.80;2252.80
49052;DHT22;34866;48.670;18.260;2022-10-31T04:59:28;230.70;2252.80
49052;DHT22;34866;48.670;18.260;2022-10-31T05:01:55;230.60;2252.80
49052;DHT22;34866;48.670;18.260;2022-10-31T05:04:20;230.60;2252.80
49052;DHT22;34866;48.670;18.260;2022-10-31T05:06:46;230.70;2252.80
49052;DHT22;34866;48.670;18.260;2022-10-31T05:09:15;230.70;2252.80
49052;DHT22;34866;48.670;18.260;2022-10-31T05:11:47;230.70;2252.80
49052;DHT22;34866;48.670;18.260;2022-10-31T05:14:15;230.60;2252.80
49052;DHT22;34866;48.670;18.260;2022-10-31T05:16:42;230.60;2252.80
49052;DHT22;34866;48.670;18.260;2022-10-31T05:19:08;230.60;2252.80
49052;DHT22;34866;48.670;18.260;2022-10-31T05:21:43;230.70;2252.80
49052;DHT22;34866;48.670;18.260;2022-10-31T05:24:14;230.70;2252.80
49052;DHT22;34866;48.670;18.260;2022-10-31T05:26:43;230.70;2252.80
49052;DHT22;34866;48.670;18.260;2022-10-31T05:29:11;230.70;2252.80
49052;DHT22;34866;48.670;18.260;2022-10-31T05:31:36;230.70;2252.80
49052;DHT22;34866;48.670;18.260;2022-10-31T05:34:05;230.70;2252.80
49052;DHT22;34866;48.670;18.260;2022-10-31T05:36:34;230.70;2252.80
49052;DHT22;34866;48.670;18.260;2022-10-31T05:39:08;230.70;2252.80
49052;DHT22;34866;48.670;18.260;2022-10-31T05:41:40;230.70;2252.80
49052;DHT22;34866;48.670;18.260;2022-10-31T05:44:34;230.70;2252.80
49052;DHT22;34866;48.670;18.260;2022-10-31T05:47:00;230.70;2252.80
49052;DHT22;34866;48.670;18.260;2022-10-31T05:49:32;230.70;2252.80
49052;DHT22;34866;48.670;18.260;2022-10-31T05:51:57;230.60;2252.80
49052;DHT22;34866;48.670;18.260;2022-10-31T05:54:59;230.70;2252.80
49052;DHT22;34866;48.670;18.260;2022-10-31T05:57:29;230.70;2252.80
49052;DHT22;34866;48.670;18.260;2022-10-31T05:59:56;230.70;2252.80
49052;DHT22;34866;48.670;18.260;2022-10-31T06:02:26;230.80;2252.80
49052;DHT22;34866;48.670;18.260;2022-10-31T06:05:11;230.70;2252.80
49052;DHT22;34866;48.670;18.260;2022-10-31T06:08:08;230.80;2252.80
49052;DHT22;34866;48.670;18.260;2022-10-31T06:10:36;230.70;2252.80
49052;DHT22;34866;48.670;18.260;2022-10-31T06:13:11;230.70;2252.80
49052;DHT22;34866;48.670;18.260;2022-10-31T06:15:48;230.70;2252.80
49052;DHT22;34866;48.670;18.260;2022-10-31T06:18:16;230.70;2252.80
49052;DHT22;34866;48.670;18.260;2022-10-31T06:21:00;230.70;2252.80
49052;DHT22;34866;48.670;18.260;2022-10-31T06:23:27;230.60;2252.80
49052;DHT22;34866;48.670;18.260;2022-10-31T06:25:53;230.70;2252.80
49052;DHT22;34866;48.670;18.260;2022-10-31T06:28:28;230.80;2252.80
49052;DHT22;34866;48.670;18.260;2022-10-31T06:31:04;230.80;2252.80
49052;DHT22;34866;48.670;18.260;2022-10-31T06:33:30;230.80;2252.80
49052;DHT22;34866;48.670;18.260;2022-10-31T06:36:01;230.80;2252.80
49052;DHT22;34866;48.670;18.260;2022-10-31T06:38:27;230.80;2252.80
49052;DHT22;34866;48.670;18.260;2022-10-31T06:41:09;230.90;2252.80
49052;DHT22;34866;48.670;18.260;2022-10-31T06:43:37;230.90;2252.80
49052;DHT22;34866;48.670;18.260;2022-10-31T06:46:04;230.90;2252.80
49052;DHT22;34866;48.670;18.260;2022-10-31T06:49:02;230.80;2252.80
49052;DHT22;34866;48.670;18.260;2022-10-31T06:51:40;230.80;2252.80
49052;DHT22;34866;48.670;18.260;2022-10-31T06:54:06;230.90;2252.80
49052;DHT22;34866;48.670;18.260;2022-10-31T06:56:48;231.00;2252.80
49052;DHT22;34866;48.670;18.260;2022-10-31T06:59:15;231.00;2252.80
49052;DHT22;34866;48.670;18.260;2022-10-31T07:02:00;230.90;2252.80
49052;DHT22;34866;48.670;18.260;2022-10-31T07:04:41;231.00;2252.80
49052;DHT22;34866;48.670;18.260;2022-10-31T07:07:07;231.00;2252.80
49052;DHT22;34866;48.670;18.260;2022-10-31T07:09:40;231.00;2252.80
49052;DHT22;34866;48.670;18.260;2022-10-31T07:12:27;231.10;2252.80
49052;DHT22;34866;48.670;18.260;2022-10-31T07:15:14;230.90;2252.80
49052;DHT22;34866;48.670;18.260;2022-10-31T07:17:46;230.90;2252.80
49052;DHT22;34866;48.670;18.260;2022-10-31T07:20:16;230.90;2252.80
49052;DHT22;34866;48.670;18.260;2022-10-31T07:22:51;231.00;2252.80
49052;DHT22;34866;48.670;18.260;2022-10-31T07:25:16;231.10;2252.80
49052;DHT22;34866;48.670;18.260;2022-10-31T07:27:44;230.90;2252.80
49052;DHT22;34866;48.670;18.260;2022-10-31T07:30:22;231.00;2252.80
49052;DHT22;34866;48.670;18.260;2022-10-31T07:33:11;231.00;2252.80
49052;DHT22;34866;48.670;18.260;2022-10-31T07:35:37;231.10;2252.80
49052;DHT22;34866;48.670;18.260;2022-10-31T07:38:12;231.10;2252.80
49052;DHT22;34866;48.670;18.260;2022-10-31T07:40:52;231.10;2252.80
49052;DHT22;34866;48.670;18.260;2022-10-31T07:43:19;231.10;2252.80
49052;DHT22;34866;48.670;18.260;2022-10-31T07:45:52;231.10;2252.80
49052;DHT22;34866;48.670;18.260;2022-10-31T07:48:21;231.10;2252.80
49052;DHT22;34866;48.670;18.260;2022-10-31T07:50:47;231.10;2252.80
49052;DHT22;34866;48.670;18.260;2022-10-31T07:53:19;231.20;2252.80
49052;DHT22;34866;48.670;18.260;2022-10-31T07:55:47;231.20;2252.80
49052;DHT22;34866;48.670;18.260;2022-10-31T07:58:25;231.10;2252.80
49052;DHT22;34866;48.670;18.260;2022-10-31T08:00:52;231.10;2252.80
49052;DHT22;34866;48.670;18.260;2022-10-31T08:03:20;231.10;2252.80
49052;DHT22;34866;48.670;18.260;2022-10-31T08:05:46;231.20;2252.80
49052;DHT22;34866;48.670;18.260;2022-10-31T08:08:13;231.10;2252.80
49052;DHT22;34866;48.670;18.260;2022-10-31T08:10:39;231.10;2252.80
49052;DHT22;34866;48.670;18.260;2022-10-31T08:13:09;231.10;2252.80
49052;DHT22;34866;48.670;18.260;2022-10-31T08:15:36;231.00;2252.80
49052;DHT22;34866;48.670;18.260;2022-10-31T08:18:06;231.10;2252.80
49052;DHT22;34866;48.670;18.260;2022-10-31T08:20:34;231.10;2252.80
49052;DHT22;34866;48.670;18.260;2022-10-31T08:23:06;231.20;2252.80
49052;DHT22;34866;48.670;18.260;2022-10-31T08:25:38;231.00;2252.80
49052;DHT22;34866;48.670;18.260;2022-10-31T08:28:11;231.10;2252.80
49052;DHT22;34866;48.670;18.260;2022-10-31T08:30:42;230.90;2252.80
49052;DHT22;34866;48.670;18.260;2022-10-31T08:33:11;231.10;2252.80
49052;DHT22;34866;48.670;18.260;2022-10-31T08:35:40;231.10;2252.80
49052;DHT22;34866;48.670;18.260;2022-10-31T08:38:09;231.00;2252.80
49052;DHT22;34866;48.670;18.260;2022-10-31T08:40:36;231.00;2252.80
49052;DHT22;34866;48.670;18.260;2022-10-31T08:43:15;231.00;2252.80
49052;DHT22;34866;48.670;18.260;2022-10-31T08:45:42;231.10;2252.80
49052;DHT22;34866;48.670;18.260;2022-10-31T08:48:27;231.10;2252.80
49052;DHT22;34866;48.670;18.260;2022-10-31T08:50:56;231.00;2252.80
49052;DHT22;34866;48.670;18.260;2022-10-31T08:53:24;231.20;2252.80
49052;DHT22;34866;48.670;18.260;2022-10-31T08:55:56;231.20;2252.80
49052;DHT22;34866;48.670;18.260;2022-10-31T08:58:37;231.30;2252.80
49052;DHT22;34866;48.670;18.260;2022-10-31T09:01:08;231.30;2252.80
49052;DHT22;34866;48.670;18.260;2022-10-31T09:03:34;231.30;2252.80
49052;DHT22;34866;48.670;18.260;2022-10-31T09:06:09;231.30;2252.80
49052;DHT22;34866;48.670;18.260;2022-10-31T09:08:35;231.10;2252.80
49052;DHT22;34866;48.670;18.260;2022-10-31T09:11:02;231.30;2252.80
49052;DHT22;34866;48.670;18.260;2022-10-31T09:13:28;256.10;2252.80
49052;DHT22;34866;48.670;18.260;2022-10-31T09:15:55;256.10;2252.80
49052;DHT22;34866;48.670;18.260;2022-10-31T09:18:22;256.20;2252.80
49052;DHT22;34866;48.670;18.260;2022-10-31T09:20:49;256.20;2252.80
49052;DHT22;34866;48.670;18.260;2022-10-31T09:23:21;256.00;2252.80
49052;DHT22;34866;48.670;18.260;2022-10-31T09:25:49;256.00;2252.80
49052;DHT22;34866;48.670;18.260;2022-10-31T09:28:18;256.00;2252.80
49052;DHT22;34866;48.670;18.260;2022-10-31T09:30:46;231.20;2252.80
49052;DHT22;34866;48.670;18.260;2022-10-31T09:33:13;256.10;2252.80
49052;DHT22;34866;48.670;18.260;2022-10-31T09:35:39;231.30;2252.80
49052;DHT22;34866;48.670;18.260;2022-10-31T09:38:08;256.10;2252.80
49052;DHT22;34866;48.670;18.260;2022-10-31T09:52:29;256.30;2252.80
49052;DHT22;34866;48.670;18.260;2022-10-31T09:55:18;256.30;2252.80
49052;DHT22;34866;48.670;18.260;2022-10-31T09:57:45;256.10;2252.80
49052;DHT22;34866;48.670;18.260;2022-10-31T10:00:18;256.20;2252.80
49052;DHT22;34866;48.670;18.260;2022-10-31T10:02:58;256.20;2252.80
49052;DHT22;34866;48.670;18.260;2022-10-31T10:05:34;256.20;2252.80
49052;DHT22;34866;48.670;18.260;2022-10-31T10:08:11;256.30;2252.80
49052;DHT22;34866;48.670;18.260;2022-10-31T10:14:02;256.20;2252.80
49052;DHT22;34866;48.670;18.260;2022-10-31T10:17:00;256.30;2252.80
49052;DHT22;34866;48.670;18.260;2022-10-31T10:22:32;256.40;2252.80
49052;DHT22;34866;48.670;18.260;2022-10-31T10:25:33;256.30;2252.80
49052;DHT22;34866;48.670;18.260;2022-10-31T10:28:21;256.30;2252.80
49052;DHT22;34866;48.670;18.260;2022-10-31T10:31:10;256.30;2252.80
49052;DHT22;34866;48.670;18.260;2022-10-31T10:33:57;256.20;2252.80
49052;DHT22;34866;48.670;18.260;2022-10-31T10:36:48;256.30;2252.80
49052;DHT22;34866;48.670;18.260;2022-10-31T10:39:41;256.20;2252.80
49052;DHT22;34866;48.670;18.260;2022-10-31T10:42:14;256.30;2252.80
49052;DHT22;34866;48.670;18.260;2022-10-31T10:45:00;256.40;2252.80
49052;DHT22;34866;48.670;18.260;2022-10-31T10:48:02;256.30;2252.80
49052;DHT22;34866;48.670;18.260;2022-10-31T10:50:35;256.30;2252.80
49052;DHT22;34866;48.670;18.260;2022-10-31T10:53:16;256.30;2252.80
49052;DHT22;34866;48.670;18.260;2022-10-31T10:58:43;256.30;2252.80
49052;DHT22;34866;48.670;18.260;2022-10-31T11:01:12;256.40;2252.80
49052;DHT22;34866;48.670;18.260;2022-10-31T11:03:39;256.20;2252.80
49052;DHT22;34866;48.670;18.260;2022-10-31T11:06:19;256.20;2252.80
49052;DHT22;34866;48.670;18.260;2022-10-31T11:08:48;256.20;2252.80
49052;DHT22;34866;48.670;18.260;2022-10-31T11:11:26;256.40;2252.80
49052;DHT22;34866;48.670;18.260;2022-10-31T11:14:03;256.50;2252.80
49052;DHT22;34866;48.670;18.260;2022-10-31T11:16:36;256.40;2252.80
49052;DHT22;34866;48.670;18.260;2022-10-31T11:19:20;256.50;2252.80
49052;DHT22;34866;48.670;18.260;2022-10-31T11:21:47;256.60;2252.80
49052;DHT22;34866;48.670;18.260;2022-10-31T11:24:19;256.40;2252.80
49052;DHT22;34866;48.670;18.260;2022-10-31T11:26:47;256.50;2252.80
49052;DHT22;34866;48.670;18.260;2022-10-31T11:31:52;256.60;2252.80
49052;DHT22;34866;48.670;18.260;2022-10-31T11:36:49;256.60;2252.80
49052;DHT22;34866;48.670;18.260;2022-10-31T11:39:19;256.60;2252.80
49052;DHT22;34866;48.670;18.260;2022-10-31T11:41:50;256.40;2252.80
49052;DHT22;34866;48.670;18.260;2022-10-31T11:44:26;256.60;2252.80
49052;DHT22;34866;48.670;18.260;2022-10-31T11:47:02;256.70;2252.80
49052;DHT22;34866;48.670;18.260;2022-10-31T11:49:30;256.80;2252.80
49052;DHT22;34866;48.670;18.260;2022-10-31T11:52:03;256.70;2252.80
49052;DHT22;34866;48.670;18.260;2022-10-31T11:57:47;256.80;2252.80
49052;DHT22;34866;48.670;18.260;2022-10-31T12:05:45;256.70;2252.80
49052;DHT22;34866;48.670;18.260;2022-10-31T12:08:13;256.90;2252.80
49052;DHT22;34866;48.670;18.260;2022-10-31T12:13:39;256.90;2252.80
49052;DHT22;34866;48.670;18.260;2022-10-31T12:16:27;281.60;2278.40
49052;DHT22;34866;48.670;18.260;2022-10-31T12:21:58;281.60;2278.40
49052;DHT22;34866;48.670;18.260;2022-10-31T12:30:26;281.70;2278.40
49052;DHT22;34866;48.670;18.260;2022-10-31T12:49:03;281.90;2278.40
49052;DHT22;34866;48.670;18.260;2022-10-31T12:52:03;281.90;2278.40
49052;DHT22;34866;48.670;18.260;2022-10-31T12:55:08;281.60;2278.40
49052;DHT22;34866;48.670;18.260;2022-10-31T12:57:56;281.70;2278.40
49052;DHT22;34866;48.670;18.260;2022-10-31T13:00:24;281.80;2278.40
49052;DHT22;34866;48.670;18.260;2022-10-31T13:05:39;281.60;2278.40
49052;DHT22;34866;48.670;18.260;2022-10-31T13:08:11;281.80;2278.40
49052;DHT22;34866;48.670;18.260;2022-10-31T13:10:51;281.70;2278.40
49052;DHT22;34866;48.670;18.260;2022-10-31T13:13:43;281.80;2278.40
49052;DHT22;34866;48.670;18.260;2022-10-31T13:16:22;281.80;2278.40
49052;DHT22;34866;48.670;18.260;2022-10-31T13:19:17;281.80;2278.40
49052;DHT22;34866;48.670;18.260;2022-10-31T13:22:04;281.80;2278.40
49052;DHT22;34866;48.670;18.260;2022-10-31T13:27:30;281.70;2278.40
49052;DHT22;34866;48.670;18.260;2022-10-31T13:30:03;281.70;2278.40
49052;DHT22;34866;48.670;18.260;2022-10-31T13:38:29;281.80;2278.40
49052;DHT22;34866;48.670;18.260;2022-10-31T13:44:21;281.70;2278.40
49052;DHT22;34866;48.670;18.260;2022-10-31T13:46:50;281.90;2278.40
49052;DHT22;34866;48.670;18.260;2022-10-31T13:51:49;281.90;2278.40
49052;DHT22;34866;48.670;18.260;2022-10-31T13:56:51;281.80;2278.40
49052;DHT22;34866;48.670;18.260;2022-10-31T13:59:23;281.70;2278.40
49052;DHT22;34866;48.670;18.260;2022-10-31T14:01:56;256.90;2252.80
49052;DHT22;34866;48.670;18.260;2022-10-31T14:04:26;281.70;2278.40
49052;DHT22;34866;48.670;18.260;2022-10-31T14:07:13;281.80;2278.40
49052;DHT22;34866;48.670;18.260;2022-10-31T14:10:27;281.60;2278.40
49052;DHT22;34866;48.670;18.260;2022-10-31T14:16:20;281.70;2278.40
49052;DHT22;34866;48.670;18.260;2022-10-31T14:18:51;281.70;2278.40
49052;DHT22;34866;48.670;18.260;2022-10-31T14:21:29;281.60;2278.40
49052;DHT22;34866;48.670;18.260;2022-10-31T14:23:56;281.60;2278.40
49052;DHT22;34866;48.670;18.260;2022-10-31T14:29:02;281.70;2278.40
49052;DHT22;34866;48.670;18.260;2022-10-31T14:31:43;231.00;2252.80
49052;DHT22;34866;48.670;18.260;2022-10-31T14:34:22;281.60;2278.40
49052;DHT22;34866;48.670;18.260;2022-10-31T14:40:18;281.60;2278.40
49052;DHT22;34866;48.670;18.260;2022-10-31T14:53:52;281.70;2278.40
49052;DHT22;34866;48.670;18.260;2022-10-31T14:56:28;281.60;2278.40
49052;DHT22;34866;48.670;18.260;2022-10-31T14:59:03;281.60;2278.40
49052;DHT22;34866;48.670;18.260;2022-10-31T15:01:39;281.60;2278.40
49052;DHT22;34866;48.670;18.260;2022-10-31T15:04:17;281.70;2278.40
49052;DHT22;34866;48.670;18.260;2022-10-31T15:06:50;281.70;2278.40
49052;DHT22;34866;48.670;18.260;2022-10-31T15:09:33;281.80;2278.40
49052;DHT22;34866;48.670;18.260;2022-10-31T15:12:00;281.80;2278.40
49052;DHT22;34866;48.670;18.260;2022-10-31T15:14:30;281.70;2278.40
49052;DHT22;34866;48.670;18.260;2022-10-31T15:17:02;281.70;2278.40
49052;DHT22;34866;48.670;18.260;2022-10-31T15:19:34;281.60;2278.40
49052;DHT22;34866;48.670;18.260;2022-10-31T15:22:05;281.60;2278.40
49052;DHT22;34866;48.670;18.260;2022-10-31T15:24:35;281.70;2278.40
49052;DHT22;34866;48.670;18.260;2022-10-31T15:27:02;281.70;2278.40
49052;DHT22;34866;48.670;18.260;2022-10-31T15:29:28;281.70;2278.40
49052;DHT22;34866;48.670;18.260;2022-10-31T15:32:00;281.60;2278.40
49052;DHT22;34866;48.670;18.260;2022-10-31T15:34:39;281.60;2278.40
49052;DHT22;34866;48.670;18.260;2022-10-31T15:37:10;281.60;2278.40
49052;DHT22;34866;48.670;18.260;2022-10-31T15:39:37;256.90;2252.80
49052;DHT22;34866;48.670;18.260;2022-10-31T15:42:02;281.60;2278.40
49052;DHT22;34866;48.670;18.260;2022-10-31T15:44:34;256.90;2252.80
49052;DHT22;34866;48.670;18.260;2022-10-31T15:47:05;256.90;2252.80
49052;DHT22;34866;48.670;18.260;2022-10-31T15:49:51;256.80;2252.80
49052;DHT22;34866;48.670;18.260;2022-10-31T15:52:39;256.80;2252.80
49052;DHT22;34866;48.670;18.260;2022-10-31T15:57:50;256.90;2252.80
49052;DHT22;34866;48.670;18.260;2022-10-31T16:00:31;256.90;2252.80
49052;DHT22;34866;48.670;18.260;2022-10-31T16:05:49;256.90;2252.80
49052;DHT22;34866;48.670;18.260;2022-10-31T16:13:52;256.90;2252.80
49052;DHT22;34866;48.670;18.260;2022-10-31T16:16:19;256.90;2252.80
49052;DHT22;34866;48.670;18.260;2022-10-31T16:18:46;256.80;2252.80
49052;DHT22;34866;48.670;18.260;2022-10-31T16:21:13;256.70;2252.80
49052;DHT22;34866;48.670;18.260;2022-10-31T16:23:45;256.80;2252.80
49052;DHT22;34866;48.670;18.260;2022-10-31T16:26:16;256.70;2252.80
49052;DHT22;34866;48.670;18.260;2022-10-31T16:28:57;256.70;2252.80
49052;DHT22;34866;48.670;18.260;2022-10-31T16:31:38;256.70;2252.80
49052;DHT22;34866;48.670;18.260;2022-10-31T16:34:17;256.70;2252.80
49052;DHT22;34866;48.670;18.260;2022-10-31T16:36:44;256.80;2252.80
49052;DHT22;34866;48.670;18.260;2022-10-31T16:39:10;256.80;2252.80
49052;DHT22;34866;48.670;18.260;2022-10-31T16:41:41;256.80;2252.80
49052;DHT22;34866;48.670;18.260;2022-10-31T16:44:25;256.80;2252.80
49052;DHT22;34866;48.670;18.260;2022-10-31T16:47:13;256.80;2252.80
49052;DHT22;34866;48.670;18.260;2022-10-31T16:49:39;256.60;2252.80
49052;DHT22;34866;48.670;18.260;2022-10-31T16:52:04;256.80;2252.80
49052;DHT22;34866;48.670;18.260;2022-10-31T16:54:30;256.70;2252.80
49052;DHT22;34866;48.670;18.260;2022-10-31T16:56:58;256.80;2252.80
49052;DHT22;34866;48.670;18.260;2022-10-31T16:59:26;256.70;2252.80
49052;DHT22;34866;48.670;18.260;2022-10-31T17:01:54;230.80;2252.80
49052;DHT22;34866;48.670;18.260;2022-10-31T17:04:20;256.80;2252.80
49052;DHT22;34866;48.670;18.260;2022-10-31T17:06:46;256.70;2252.80
49052;DHT22;34866;48.670;18.260;2022-10-31T17:09:12;256.70;2252.80
49052;DHT22;34866;48.670;18.260;2022-10-31T17:11:45;256.70;2252.80
49052;DHT22;34866;48.670;18.260;2022-10-31T17:14:11;256.70;2252.80
49052;DHT22;34866;48.670;18.260;2022-10-31T17:16:37;256.80;2252.80
49052;DHT22;34866;48.670;18.260;2022-10-31T17:19:04;256.80;2252.80
49052;DHT22;34866;48.670;18.260;2022-10-31T17:21:30;256.70;2252.80
49052;DHT22;34866;48.670;18.260;2022-10-31T17:23:56;256.70;2252.80
49052;DHT22;34866;48.670;18.260;2022-10-31T17:26:25;256.80;2252.80
49052;DHT22;34866;48.670;18.260;2022-10-31T17:28:51;256.80;2252.80
49052;DHT22;34866;48.670;18.260;2022-10-31T17:33:43;256.70;2252.80
49052;DHT22;34866;48.670;18.260;2022-10-31T17:36:08;256.80;2252.80
49052;DHT22;34866;48.670;18.260;2022-10-31T17:38:37;256.80;2252.80
49052;DHT22;34866;48.670;18.260;2022-10-31T17:41:07;256.80;2252.80